METAR Data
IDs: Format: Raw Decoded Include TAF

Data at: 0021 UTC 25 Apr 2019

METAR for:KDSM (Des Moines Intl, IA, US)
Text:KDSM 242354Z 00000KT 10SM FEW040 FEW250 20/08 A2978 RMK AO2 SLP084 T02000083 10211 20150 58016
Temperature: 20.0°C ( 68°F)
Dewpoint: 8.3°C ( 47°F) [RH = 47%]
Pressure (altimeter):29.78 inches Hg (1008.5 mb) [Sea level pressure: 1008.4 mb]
Winds:calm
Visibility:10 or more sm (16+ km)
Ceiling:at least 12,000 feet AGL
Clouds: few clouds at 4000 feet AGL, few clouds at 25000 feet AGL